Time;durP1;ratioP1;P1;durP2;ratioP2;P2;SDS_P1;SDS_P2;PMS_P1;PMS_P2;Temp;Humidity;BMP_temperature;BMP_pressure;BME280_temperature;BME280_humidity;BME280_pressure;Samples;Min_cycle;Max_cycle;Signal;HPM_P1;HPM_P2
2020/12/26 00:01:40;;;;;;;17.50;10.15;;;;;;;0.25;89.32;102114.13;6228211;22;20004;-74
2020/12/26 00:04:05;;;;;;;14.55;10.02;;;;;;;0.26;89.71;102103.00;6202281;22;20004;-72
2020/12/26 00:06:31;;;;;;;19.48;9.57;;;;;;;0.28;89.58;102102.81;6252798;22;20016;-72
2020/12/26 00:08:56;;;;;;;15.60;9.15;;;;;;;0.29;89.66;102097.16;6280033;22;20011;-72
2020/12/26 00:11:22;;;;;;;15.90;9.40;;;;;;;0.31;89.64;102097.00;6279914;22;20082;-72
2020/12/26 00:13:49;;;;;;;18.92;10.63;;;;;;;0.32;89.78;102096.78;6252218;22;20059;-72
2020/12/26 00:16:15;;;;;;;16.90;10.00;;;;;;;0.34;90.00;102088.41;6227398;22;20065;-72
2020/12/26 00:18:41;;;;;;;14.93;9.82;;;;;;;0.35;89.74;102098.31;6227429;22;20012;-72
2020/12/26 00:21:09;;;;;;;18.83;10.60;;;;;;;0.39;89.64;102099.59;6279625;22;20047;-73
2020/12/26 00:23:34;;;;;;;14.63;9.68;;;;;;;0.41;89.94;102094.81;6252239;22;20015;-72
2020/12/26 00:26:00;;;;;;;16.83;10.18;;;;;;;0.43;89.55;102095.47;6226555;22;20011;-73
2020/12/26 00:28:25;;;;;;;16.92;10.43;;;;;;;0.40;89.88;102098.59;6252566;22;20007;-72
2020/12/26 00:30:51;;;;;;;17.73;9.88;;;;;;;0.42;89.66;102096.53;6225982;22;20007;-72
2020/12/26 00:33:16;;;;;;;17.95;10.30;;;;;;;0.42;89.66;102086.44;6279407;22;20019;-72
2020/12/26 00:35:42;;;;;;;17.17;10.43;;;;;;;0.41;89.71;102082.00;6252514;22;20065;-72
2020/12/26 00:38:08;;;;;;;16.85;10.88;;;;;;;0.42;90.02;102080.13;6227036;22;20028;-72
2020/12/26 00:40:33;;;;;;;16.23;10.57;;;;;;;0.47;89.79;102083.13;6251951;22;20018;-72
2020/12/26 00:42:58;;;;;;;16.90;10.77;;;;;;;0.44;89.92;102078.03;6279314;22;20011;-72
2020/12/26 00:45:24;;;;;;;16.45;10.35;;;;;;;0.44;90.17;102088.97;6227499;22;20003;-72
2020/12/26 00:47:50;;;;;;;18.80;11.30;;;;;;;0.46;90.03;102081.44;6201924;22;20417;-73
2020/12/26 00:50:15;;;;;;;16.23;10.70;;;;;;;0.46;89.89;102084.16;6227037;22;20538;-72
2020/12/26 00:52:41;;;;;;;19.08;11.60;;;;;;;0.47;90.03;102074.91;6252581;22;20015;-72
2020/12/26 00:55:06;;;;;;;17.90;11.05;;;;;;;0.48;90.14;102082.09;6279019;22;20008;-72
2020/12/26 00:57:35;;;;;;;19.33;11.13;;;;;;;0.51;89.98;102067.22;6251803;22;20030;-72
2020/12/26 01:00:01;;;;;;;18.23;11.70;;;;;;;0.47;90.20;102071.34;6226539;22;19999;-72
2020/12/26 01:02:26;;;;;;;17.45;10.38;;;;;;;0.52;90.19;102068.88;6279642;22;20348;-72
2020/12/26 01:04:52;;;;;;;18.02;10.77;;;;;;;0.50;90.04;102066.34;6279234;22;20004;-72
2020/12/26 01:07:17;;;;;;;16.05;11.32;;;;;;;0.52;89.92;102064.25;6278892;22;20393;-72
2020/12/26 01:09:43;;;;;;;17.40;10.73;;;;;;;0.52;90.11;102064.25;6251745;22;20014;-72
2020/12/26 01:12:08;;;;;;;15.23;10.38;;;;;;;0.53;90.12;102070.56;6226903;22;20008;-72
2020/12/26 01:14:34;;;;;;;17.30;10.80;;;;;;;0.56;90.20;102071.06;6225977;22;20004;-72
2020/12/26 01:16:59;;;;;;;18.63;11.45;;;;;;;0.55;90.17;102074.81;6252018;22;20003;-72
2020/12/26 01:19:27;;;;;;;16.80;11.13;;;;;;;0.55;90.22;102069.34;6227175;22;20366;-74
2020/12/26 01:21:53;;;;;;;17.00;11.27;;;;;;;0.58;90.23;102070.88;6251936;22;20015;-74
2020/12/26 01:24:19;;;;;;;15.75;10.68;;;;;;;0.59;90.20;102070.69;6278566;22;20082;-74
2020/12/26 01:26:48;;;;;;;15.32;10.25;;;;;;;0.60;90.27;102072.38;6226646;22;20065;-75
2020/12/26 01:29:14;;;;;;;16.15;10.52;;;;;;;0.62;90.18;102067.56;6278694;22;20063;-75
2020/12/26 01:31:40;;;;;;;15.80;10.20;;;;;;;0.60;90.27;102069.63;6251115;22;20012;-75
2020/12/26 01:34:06;;;;;;;16.75;10.73;;;;;;;0.58;90.40;102068.97;6278674;22;20039;-74
2020/12/26 01:36:31;;;;;;;16.92;10.10;;;;;;;0.65;90.14;102063.59;6251663;22;20436;-75
2020/12/26 01:38:57;;;;;;;15.35;9.95;;;;;;;0.64;90.30;102065.50;6279319;22;20010;-74
2020/12/26 01:41:22;;;;;;;17.70;9.55;;;;;;;0.66;89.99;102054.34;6251215;22;20329;-74
2020/12/26 01:43:56;;;;;;;15.60;9.90;;;;;;;0.66;90.12;102041.53;6251264;22;20041;-75
2020/12/26 01:46:22;;;;;;;16.02;10.50;;;;;;;0.70;90.25;102038.41;6226805;22;20035;-74
2020/12/26 01:48:48;;;;;;;15.48;9.82;;;;;;;0.66;90.26;102036.06;6201662;22;20007;-75
2020/12/26 01:51:14;;;;;;;14.70;9.98;;;;;;;0.66;90.30;102022.38;6176713;22;20007;-74
2020/12/26 01:53:39;;;;;;;15.45;10.70;;;;;;;0.65;90.29;102031.63;6201403;22;20007;-74
2020/12/26 01:56:05;;;;;;;15.32;9.88;;;;;;;0.66;90.32;102024.28;6226470;22;20011;-74
2020/12/26 01:58:30;;;;;;;14.32;9.18;;;;;;;0.64;90.32;102029.94;6226284;22;20061;-74
2020/12/26 02:00:56;;;;;;;14.68;9.65;;;;;;;0.64;90.32;102019.00;6201133;22;20012;-74
2020/12/26 02:03:21;;;;;;;15.02;9.50;;;;;;;0.63;90.27;102016.47;6278804;22;20007;-75
2020/12/26 02:05:47;;;;;;;15.88;9.35;;;;;;;0.65;90.14;102019.84;6278831;22;20011;-74
2020/12/26 02:08:13;;;;;;;12.60;9.43;;;;;;;0.63;90.23;102017.31;6278305;22;20046;-74
2020/12/26 02:10:38;;;;;;;14.43;9.13;;;;;;;0.63;90.19;102017.31;6250994;22;20061;-74
2020/12/26 02:13:04;;;;;;;15.98;9.30;;;;;;;0.62;90.08;102020.25;6279012;22;20074;-75
2020/12/26 02:15:30;;;;;;;16.98;9.25;;;;;;;0.61;90.12;102024.00;6278664;22;20003;-74
2020/12/26 02:17:56;;;;;;;14.02;9.02;;;;;;;0.63;89.93;102021.94;6226279;22;20050;-75
2020/12/26 02:20:21;;;;;;;12.65;8.40;;;;;;;0.57;89.92;102012.59;6278565;22;20012;-74
2020/12/26 02:22:47;;;;;;;13.52;8.75;;;;;;;0.56;90.40;101999.97;6251713;22;20083;-74
2020/12/26 02:25:13;;;;;;;14.23;8.60;;;;;;;0.55;90.06;102001.00;6225588;22;20069;-75
2020/12/26 02:27:38;;;;;;;12.85;8.60;;;;;;;0.55;90.22;101998.28;6277787;22;20014;-74
2020/12/26 02:30:04;;;;;;;13.35;8.20;;;;;;;0.49;90.19;101993.56;6278290;22;20007;-74
2020/12/26 02:32:30;;;;;;;11.40;8.20;;;;;;;0.48;90.05;101991.88;6251352;22;20008;-74
2020/12/26 02:34:55;;;;;;;12.25;8.85;;;;;;;0.46;90.19;101984.91;6250912;22;20008;-74
2020/12/26 02:37:21;;;;;;;14.07;8.95;;;;;;;0.43;90.24;101981.53;6251478;22;20015;-75
2020/12/26 02:39:46;;;;;;;12.35;8.43;;;;;;;0.47;89.97;101978.41;6201080;22;20019;-75
2020/12/26 02:42:13;;;;;;;15.27;9.07;;;;;;;0.42;90.27;101979.00;6251441;22;20015;-74
2020/12/26 02:44:39;;;;;;;14.20;9.00;;;;;;;0.40;90.53;101989.25;6277740;22;20011;-74
2020/12/26 02:47:04;;;;;;;13.85;9.32;;;;;;;0.37;90.55;101989.66;6226394;22;20007;-74
2020/12/26 02:49:30;;;;;;;19.38;9.25;;;;;;;0.37;90.55;101984.19;6251250;22;20018;-74
2020/12/26 02:51:55;;;;;;;16.02;8.75;;;;;;;0.37;90.47;101978.72;6251196;22;19999;-74
2020/12/26 02:54:21;;;;;;;12.95;8.65;;;;;;;0.37;90.46;101982.28;6225761;22;20028;-74
2020/12/26 02:56:47;;;;;;;15.40;9.40;;;;;;;0.35;90.46;101978.88;6251482;22;20012;-74
2020/12/26 02:59:12;;;;;;;14.75;8.43;;;;;;;0.31;90.62;101969.41;6277953;22;20004;-74
2020/12/26 03:01:41;;;;;;;15.63;8.88;;;;;;;0.33;90.59;101966.44;6250800;22;20008;-74
2020/12/26 03:04:06;;;;;;;13.35;9.18;;;;;;;0.27;90.43;101972.69;6226325;22;20016;-74
2020/12/26 03:06:32;;;;;;;13.05;8.32;;;;;;;0.29;90.68;101981.53;6251418;22;20007;-74
2020/12/26 03:08:58;;;;;;;14.27;9.15;;;;;;;0.25;90.54;101975.59;6278003;22;20514;-74
2020/12/26 03:11:23;;;;;;;16.30;8.57;;;;;;;0.28;90.71;101979.84;6277705;22;20333;-74
2020/12/26 03:13:49;;;;;;;10.95;8.02;;;;;;;0.29;90.62;101978.81;6278088;22;20432;-74
2020/12/26 03:16:15;;;;;;;12.43;8.57;;;;;;;0.22;90.71;101965.03;6226033;22;20015;-74
2020/12/26 03:18:41;;;;;;;13.30;8.73;;;;;;;0.25;90.70;101964.66;6225715;22;20004;-74
2020/12/26 03:21:07;;;;;;;13.85;9.10;;;;;;;0.25;90.98;101959.19;6251223;22;20012;-74
2020/12/26 03:23:32;;;;;;;13.45;9.00;;;;;;;0.25;91.01;101961.94;6278484;22;20086;-74
2020/12/26 03:25:58;;;;;;;13.25;8.80;;;;;;;0.26;90.93;101955.44;6250352;22;20004;-74
2020/12/26 03:28:23;;;;;;;13.35;8.60;;;;;;;0.29;90.92;101954.22;6277783;22;20003;-74
2020/12/26 03:30:49;;;;;;;12.20;8.25;;;;;;;0.35;90.79;101945.25;6277527;22;20026;-72
2020/12/26 03:33:14;;;;;;;12.20;7.97;;;;;;;0.33;90.86;101948.16;6201136;22;20018;-72
2020/12/26 03:35:40;;;;;;;12.98;9.02;;;;;;;0.34;90.79;101935.38;6250686;22;20007;-73
2020/12/26 03:38:05;;;;;;;13.27;8.63;;;;;;;0.35;90.90;101932.44;6278134;22;20004;-72
2020/12/26 03:40:31;;;;;;;14.48;8.65;;;;;;;0.39;90.88;101927.41;6225820;22;20003;-72
2020/12/26 03:42:56;;;;;;;13.05;8.55;;;;;;;0.39;90.87;101927.41;6225442;22;20090;-73
2020/12/26 03:45:22;;;;;;;13.50;9.05;;;;;;;0.39;91.14;101906.44;6225983;22;20000;-72
2020/12/26 03:47:48;;;;;;;11.82;8.40;;;;;;;0.44;90.88;101909.41;6250977;22;20074;-72
2020/12/26 03:50:13;;;;;;;12.45;8.15;;;;;;;0.42;90.94;101894.25;6251324;22;20008;-72
2020/12/26 03:52:39;;;;;;;13.77;8.30;;;;;;;0.42;90.92;101899.72;6278696;22;20448;-72
2020/12/26 03:55:04;;;;;;;11.65;8.02;;;;;;;0.44;91.06;101903.09;6227434;22;20008;-73
2020/12/26 03:57:30;;;;;;;11.40;7.95;;;;;;;0.47;91.15;101907.31;6202313;22;20429;-72
2020/12/26 03:59:55;;;;;;;12.32;7.82;;;;;;;0.46;90.94;101917.41;6227641;22;20398;-72
2020/12/26 04:02:21;;;;;;;11.13;7.68;;;;;;;0.48;90.81;101907.16;6252807;22;20008;-72
2020/12/26 04:04:46;;;;;;;12.63;7.55;;;;;;;0.51;90.67;101904.03;6227581;22;20387;-72
2020/12/26 04:07:12;;;;;;;14.63;7.28;;;;;;;0.48;90.66;101893.47;6280242;22;20085;-74
2020/12/26 04:09:38;;;;;;;10.98;6.78;;;;;;;0.50;90.83;101887.81;6278796;22;20019;-74
2020/12/26 04:12:04;;;;;;;9.77;6.50;;;;;;;0.47;91.00;101896.41;6279738;22;20008;-74
2020/12/26 04:14:29;;;;;;;10.63;6.57;;;;;;;0.55;90.86;101901.75;6279686;22;19999;-74
2020/12/26 04:16:59;;;;;;;11.60;7.38;;;;;;;0.57;90.69;101907.88;6227957;22;20019;-74
2020/12/26 04:19:27;;;;;;;14.18;7.70;;;;;;;0.53;90.84;101907.41;6252625;22;20008;-74
2020/12/26 04:21:53;;;;;;;9.75;6.90;;;;;;;0.55;90.82;101899.84;6279329;22;20003;-74
2020/12/26 04:24:19;;;;;;;10.63;6.38;;;;;;;0.55;91.00;101916.25;6279601;22;20031;-74
2020/12/26 04:26:44;;;;;;;9.13;5.78;;;;;;;0.56;91.00;101911.66;6279401;22;20012;-74
2020/12/26 04:29:10;;;;;;;8.60;6.18;;;;;;;0.61;90.90;101909.16;6279077;22;20008;-74
2020/12/26 04:31:36;;;;;;;9.73;6.13;;;;;;;0.60;90.79;101908.31;6251856;22;20000;-74
2020/12/26 04:34:01;;;;;;;8.65;5.72;;;;;;;0.63;91.14;101904.34;6252750;22;20008;-74
2020/12/26 04:36:27;;;;;;;9.57;5.95;;;;;;;0.65;90.96;101905.00;6279284;22;20440;-72
2020/12/26 04:38:52;;;;;;;9.55;6.28;;;;;;;0.65;91.20;101894.91;6279539;22;20008;-72
2020/12/26 04:41:19;;;;;;;10.88;5.75;;;;;;;0.66;91.16;101898.50;6252299;22;20227;-72
2020/12/26 04:43:45;;;;;;;8.95;5.90;;;;;;;0.70;91.10;101896.22;6279157;22;20043;-72
2020/12/26 04:46:13;;;;;;;11.00;6.13;;;;;;;0.69;91.07;101880.84;6226928;22;20350;-75
2020/12/26 04:48:43;;;;;;;10.95;5.78;;;;;;;0.78;91.02;101877.81;6252618;22;20008;-74
2020/12/26 04:51:09;;;;;;;9.35;5.75;;;;;;;0.77;91.07;101875.25;6228126;22;20538;-74
2020/12/26 04:53:34;;;;;;;8.77;5.07;;;;;;;0.80;91.15;101869.41;6202048;22;20007;-74
2020/12/26 04:56:01;;;;;;;9.85;5.78;;;;;;;0.77;91.35;101867.06;6201073;22;20420;-74
2020/12/26 04:58:27;;;;;;;8.35;5.75;;;;;;;0.77;91.32;101869.78;6252600;22;20008;-74
2020/12/26 05:00:53;;;;;;;8.43;5.53;;;;;;;0.80;91.43;101874.88;6252628;22;20082;-74
2020/12/26 05:03:18;;;;;;;9.27;5.95;;;;;;;0.78;91.43;101866.88;6279101;22;20008;-74
2020/12/26 05:05:44;;;;;;;9.63;5.95;;;;;;;0.79;91.53;101860.34;6252085;22;20008;-74
2020/12/26 05:08:12;;;;;;;10.95;6.28;;;;;;;0.80;91.30;101861.19;6226706;22;20016;-74
2020/12/26 05:10:41;;;;;;;9.80;6.22;;;;;;;0.79;91.37;101857.63;6201575;22;20003;-74
2020/12/26 05:13:12;;;;;;;8.98;5.50;;;;;;;0.80;91.15;101855.72;6251909;22;20012;-74
2020/12/26 05:15:37;;;;;;;9.00;5.80;;;;;;;0.76;91.34;101849.81;6278880;22;20068;-74
2020/12/26 05:18:03;;;;;;;6.70;5.18;;;;;;;0.79;91.40;101851.31;6252626;22;20476;-74
2020/12/26 05:20:29;;;;;;;7.82;5.97;;;;;;;0.79;91.25;101846.66;6251874;22;20662;-74
2020/12/26 05:23:11;;;;;;;10.30;6.38;;;;;;;0.72;91.15;101840.28;6226578;22;20008;-74
2020/12/26 05:25:40;;;;;;;10.10;5.93;;;;;;;0.70;91.20;101838.78;6278865;22;20664;-74
2020/12/26 05:28:22;;;;;;;8.13;5.45;;;;;;;0.71;91.25;101857.75;6251767;22;20433;-74
2020/12/26 05:30:51;;;;;;;11.43;6.07;;;;;;;0.66;91.33;101847.38;6252550;22;20019;-74
2020/12/26 05:33:16;;;;;;;10.00;5.70;;;;;;;0.72;91.21;101839.44;6176719;22;20012;-74
2020/12/26 05:35:44;;;;;;;8.25;5.72;;;;;;;0.72;91.24;101855.84;6251808;22;20015;-75
2020/12/26 05:38:21;;;;;;;7.70;5.07;;;;;;;0.68;91.46;101851.84;6227083;22;20065;-74
2020/12/26 05:40:59;;;;;;;6.65;5.15;;;;;;;0.69;91.45;101856.25;6251397;22;20003;-74
2020/12/26 05:43:26;;;;;;;8.23;6.18;;;;;;;0.66;91.60;101852.00;6251537;22;20003;-74
2020/12/26 05:45:52;;;;;;;8.43;5.55;;;;;;;0.69;91.57;101853.50;6278738;22;20080;-74
2020/12/26 05:48:19;;;;;;;12.23;5.35;;;;;;;0.70;91.70;101857.94;6251938;22;20007;-75
2020/12/26 05:50:45;;;;;;;9.32;5.78;;;;;;;0.73;91.57;101852.94;6251236;22;20013;-75
2020/12/26 05:53:15;;;;;;;8.43;5.30;;;;;;;0.75;91.47;101871.88;6251468;22;20051;-74
2020/12/26 05:55:42;;;;;;;9.05;5.65;;;;;;;0.74;91.67;101864.72;6251165;22;20011;-74
2020/12/26 05:58:08;;;;;;;12.52;6.32;;;;;;;0.77;91.54;101853.38;6278598;22;20090;-74
2020/12/26 06:00:37;;;;;;;9.45;5.78;;;;;;;0.76;91.47;101857.16;6251283;22;20448;-74
2020/12/26 06:03:33;;;;;;;6.15;4.75;;;;;;;0.80;91.44;101867.50;6278707;22;20078;-74
2020/12/26 06:06:03;;;;;;;7.90;5.18;;;;;;;0.81;91.56;101860.16;6251857;22;20014;-75
2020/12/26 06:08:29;;;;;;;8.60;5.35;;;;;;;0.83;91.57;101864.38;6201464;22;20023;-74
2020/12/26 06:10:59;;;;;;;7.88;5.30;;;;;;;0.84;91.56;101866.06;6277919;22;20086;-74
2020/12/26 06:13:28;;;;;;;9.25;5.57;;;;;;;0.87;91.48;101867.56;6278193;22;20008;-74
2020/12/26 06:15:55;;;;;;;8.38;5.22;;;;;;;0.87;91.61;101864.84;6251617;22;20010;-74
2020/12/26 06:18:24;;;;;;;8.57;5.22;;;;;;;0.92;91.56;101872.44;6278927;22;20015;-74
2020/12/26 06:20:52;;;;;;;8.40;4.97;;;;;;;0.94;91.42;101865.72;6251253;22;20018;-74
2020/12/26 06:23:21;;;;;;;8.43;5.50;;;;;;;0.96;91.38;101869.13;6226641;22;20003;-74
2020/12/26 06:25:48;;;;;;;11.30;5.63;;;;;;;0.95;91.55;101867.44;6278455;22;20038;-74
2020/12/26 06:28:25;;;;;;;6.50;4.70;;;;;;;0.98;91.64;101858.00;6251408;22;20015;-74
2020/12/26 06:30:51;;;;;;;7.90;4.65;;;;;;;0.98;91.53;101861.56;6277570;22;20089;-74
2020/12/26 06:33:17;;;;;;;7.55;4.90;;;;;;;0.99;91.61;101848.72;6251187;22;20513;-75
2020/12/26 06:35:43;;;;;;;8.50;4.88;;;;;;;1.04;91.82;101855.31;6278393;22;20012;-74
2020/12/26 06:38:14;;;;;;;7.35;4.75;;;;;;;1.00;91.77;101851.25;6200978;22;20317;-74
2020/12/26 06:40:53;;;;;;;9.32;4.97;;;;;;;1.04;91.61;101847.09;6251061;22;20375;-74
2020/12/26 06:43:47;;;;;;;6.93;5.15;;;;;;;1.04;91.76;101855.31;6176430;22;20003;-72
2020/12/26 06:46:39;;;;;;;7.45;5.13;;;;;;;1.06;91.84;101858.69;6278361;22;20011;-72
2020/12/26 06:49:05;;;;;;;6.78;4.70;;;;;;;1.12;91.65;101857.06;6273448;22;20298;-73
2020/12/26 06:51:36;;;;;;;8.18;5.15;;;;;;;1.13;91.61;101864.22;6278244;22;20031;-72
2020/12/26 06:54:04;;;;;;;7.50;4.75;;;;;;;1.17;91.58;101856.44;6278072;22;20004;-72
2020/12/26 06:56:33;;;;;;;8.38;4.85;;;;;;;1.18;91.51;101858.16;6277936;22;20041;-73
2020/12/26 06:58:59;;;;;;;8.27;5.05;;;;;;;1.16;91.55;101857.50;6278170;22;20003;-72
2020/12/26 07:01:24;;;;;;;7.47;5.15;;;;;;;1.12;91.73;101857.06;6226275;22;20010;-72
2020/12/26 07:04:14;;;;;;;8.80;5.10;;;;;;;1.15;91.87;101848.44;6225726;22;20004;-73
2020/12/26 07:06:44;;;;;;;7.65;5.00;;;;;;;1.15;91.92;101858.53;6278261;22;20007;-72
2020/12/26 07:09:11;;;;;;;7.13;4.90;;;;;;;1.13;91.88;101850.53;6278373;22;20016;-72
2020/12/26 07:11:50;;;;;;;6.65;5.28;;;;;;;1.16;91.91;101852.03;6250510;22;20112;-72
2020/12/26 07:14:29;;;;;;;8.20;4.72;;;;;;;1.13;91.94;101853.25;6225967;22;20026;-72
2020/12/26 07:16:55;;;;;;;9.05;5.10;;;;;;;1.15;92.01;101834.75;6251093;22;20031;-72
2020/12/26 07:19:24;;;;;;;8.68;5.00;;;;;;;1.17;91.93;101838.16;6278506;22;20632;-72
2020/12/26 07:21:54;;;;;;;8.18;5.30;;;;;;;1.17;92.16;101835.41;6250893;22;20051;-72
2020/12/26 07:24:30;;;;;;;7.82;5.47;;;;;;;1.18;92.27;101828.03;6200451;22;20065;-73
2020/12/26 07:27:19;;;;;;;8.63;5.30;;;;;;;1.17;92.07;101834.53;6278663;22;20074;-72
2020/12/26 07:29:55;;;;;;;9.07;5.20;;;;;;;1.19;92.17;101824.25;6227825;22;20011;-72
2020/12/26 07:32:36;;;;;;;6.32;5.03;;;;;;;1.19;92.26;101818.78;6280271;22;20023;-72
2020/12/26 07:35:33;;;;;;;8.75;5.55;;;;;;;1.20;92.44;101820.47;6252712;22;20004;-72
2020/12/26 07:37:59;;;;;;;7.45;5.40;;;;;;;1.21;92.25;101824.91;6252517;22;20004;-72
2020/12/26 07:40:33;;;;;;;8.73;4.63;;;;;;;1.22;92.44;101829.31;6279628;22;20012;-72
2020/12/26 07:43:08;;;;;;;8.38;5.13;;;;;;;1.23;92.32;101815.47;6179237;22;20011;-72
2020/12/26 07:45:34;;;;;;;8.88;5.30;;;;;;;1.26;92.55;101820.53;6253711;22;19996;-72
2020/12/26 07:48:00;;;;;;;9.70;5.65;;;;;;;1.24;92.39;101816.28;6202703;22;20015;-72
2020/12/26 07:50:27;;;;;;;6.53;5.20;;;;;;;1.24;92.38;101819.88;6279778;22;20007;-72
2020/12/26 07:52:57;;;;;;;8.57;5.05;;;;;;;1.22;92.41;101801.97;6178379;22;20460;-72
2020/12/26 07:55:22;;;;;;;8.43;5.38;;;;;;;1.21;92.25;101800.28;6227621;22;20073;-72
2020/12/26 07:57:48;;;;;;;8.68;4.82;;;;;;;1.17;92.17;101797.09;6252563;22;20016;-72
2020/12/26 08:00:23;;;;;;;7.72;5.18;;;;;;;1.10;92.31;101786.09;6279859;22;20003;-72
2020/12/26 08:02:52;;;;;;;8.27;5.57;;;;;;;1.09;92.17;101789.88;6253662;22;20008;-72
2020/12/26 08:05:25;;;;;;;10.18;5.78;;;;;;;1.05;91.98;101785.84;6202484;22;20003;-72
2020/12/26 08:07:51;;;;;;;7.63;5.13;;;;;;;1.05;92.21;101796.78;6252362;22;20046;-72
2020/12/26 08:10:17;;;;;;;8.40;5.40;;;;;;;0.97;92.19;101786.00;6252398;22;20130;-72
2020/12/26 08:13:01;;;;;;;7.53;5.70;;;;;;;0.93;92.12;101787.44;6279598;22;20015;-72
2020/12/26 08:15:28;;;;;;;9.13;5.20;;;;;;;0.93;92.02;101781.97;6279479;22;20012;-72
2020/12/26 08:17:55;;;;;;;9.02;4.97;;;;;;;0.88;92.05;101789.94;6252504;22;20008;-72
2020/12/26 08:20:23;;;;;;;8.63;5.28;;;;;;;0.84;92.44;101786.75;6227988;22;20004;-72
2020/12/26 08:22:49;;;;;;;9.57;5.32;;;;;;;0.85;92.12;101793.06;6252414;22;20469;-72
2020/12/26 08:25:16;;;;;;;11.85;5.72;;;;;;;0.82;92.58;101782.53;6279165;22;20004;-72
2020/12/26 08:27:42;;;;;;;6.55;5.43;;;;;;;0.82;92.52;101796.19;6279055;22;20015;-72
2020/12/26 08:30:14;;;;;;;7.28;5.10;;;;;;;0.87;92.68;101796.47;6252126;22;20004;-72
2020/12/26 08:33:01;;;;;;;7.10;5.03;;;;;;;0.88;92.65;101796.25;6253303;22;20004;-72
2020/12/26 08:35:26;;;;;;;9.07;5.47;;;;;;;0.91;93.05;101795.00;6252059;22;20253;-72
2020/12/26 08:38:15;;;;;;;8.18;5.68;;;;;;;0.96;93.51;101781.59;6201740;22;20011;-72
2020/12/26 08:40:42;;;;;;;7.80;5.35;;;;;;;1.04;93.37;101784.16;6195386;22;20891;-72
2020/12/26 08:43:13;;;;;;;9.13;5.45;;;;;;;1.08;93.33;101785.44;6202140;22;20007;-72
2020/12/26 08:45:40;;;;;;;7.10;5.18;;;;;;;1.14;93.38;101788.44;6226646;22;20010;-72
2020/12/26 08:48:16;;;;;;;8.43;5.68;;;;;;;1.22;92.91;101788.28;6252171;22;20081;-72
2020/12/26 08:50:41;;;;;;;7.00;5.13;;;;;;;1.27;93.00;101794.00;6252324;22;20004;-72
2020/12/26 08:53:11;;;;;;;7.38;5.10;;;;;;;1.31;93.03;101789.81;6279450;22;20019;-73
2020/12/26 08:55:53;;;;;;;7.72;4.70;;;;;;;1.35;92.71;101793.84;6176937;22;20425;-72
2020/12/26 08:58:25;;;;;;;7.60;3.73;;;;;;;1.40;92.65;101796.81;6251898;22;20007;-72
2020/12/26 09:00:53;;;;;;;7.93;4.95;;;;;;;1.44;92.78;101789.88;6252409;22;20015;-72
2020/12/26 09:03:22;;;;;;;7.90;4.55;;;;;;;1.49;92.53;101786.53;6227215;22;20008;-72
2020/12/26 09:05:48;;;;;;;8.00;5.07;;;;;;;1.55;92.59;101792.03;6252090;22;20620;-72
2020/12/26 09:08:13;;;;;;;7.93;4.78;;;;;;;1.61;92.58;101795.00;6251313;22;20020;-72
2020/12/26 09:10:39;;;;;;;8.68;4.57;;;;;;;1.67;92.54;101805.16;6279033;22;20054;-72
2020/12/26 09:13:07;;;;;;;8.07;5.07;;;;;;;1.70;92.42;101802.88;6226991;22;20490;-72
2020/12/26 09:16:08;;;;;;;7.70;4.68;;;;;;;1.77;92.37;101800.16;6278742;22;20483;-72
2020/12/26 09:18:35;;;;;;;6.28;4.70;;;;;;;1.82;92.53;101791.34;6213932;22;20008;-72
2020/12/26 09:21:01;;;;;;;6.75;4.97;;;;;;;1.88;92.32;101794.09;6252600;22;20008;-72
2020/12/26 09:23:39;;;;;;;8.93;5.03;;;;;;;1.95;92.68;101789.47;6279221;22;20066;-72
2020/12/26 09:26:17;;;;;;;8.35;5.22;;;;;;;2.03;92.70;101784.84;6251615;22;20492;-72
2020/12/26 09:28:49;;;;;;;7.88;4.55;;;;;;;2.10;92.67;101783.00;6251326;22;20011;-72
2020/12/26 09:31:16;;;;;;;9.30;5.20;;;;;;;2.16;92.71;101783.00;6251386;22;20008;-72
2020/12/26 09:33:42;;;;;;;7.00;4.45;;;;;;;2.22;92.29;101773.94;6252018;22;20011;-73
2020/12/26 09:36:12;;;;;;;9.30;4.68;;;;;;;2.31;92.23;101773.75;6251427;22;20088;-72
2020/12/26 09:38:39;;;;;;;8.93;4.50;;;;;;;2.36;92.18;101760.25;6226609;22;20011;-72
2020/12/26 09:41:21;;;;;;;6.50;4.32;;;;;;;2.42;92.12;101759.41;6277185;22;20003;-72
2020/12/26 09:43:49;;;;;;;8.23;5.10;;;;;;;2.49;92.02;101767.66;6251808;22;20081;-72
2020/12/26 09:46:14;;;;;;;6.75;4.63;;;;;;;2.53;92.14;101766.19;6278654;22;20460;-72
2020/12/26 09:48:40;;;;;;;8.40;5.00;;;;;;;2.59;92.15;101768.06;6251235;22;20030;-72
2020/12/26 09:51:22;;;;;;;10.07;5.18;;;;;;;2.62;91.78;101763.03;6278700;22;20007;-72
2020/12/26 09:53:47;;;;;;;7.43;4.10;;;;;;;2.66;91.68;101755.22;6251716;22;20015;-72
2020/12/26 09:56:13;;;;;;;10.70;4.65;;;;;;;2.71;91.60;101763.66;6226423;22;20004;-72
2020/12/26 09:58:42;;;;;;;7.70;4.10;;;;;;;2.75;91.32;101773.13;6278229;22;20506;-72
2020/12/26 10:01:11;;;;;;;7.88;4.45;;;;;;;2.80;91.41;101770.59;6278967;22;20007;-72
2020/12/26 10:03:37;;;;;;;6.88;4.63;;;;;;;2.85;91.19;101773.56;6251844;22;20015;-72
2020/12/26 10:06:03;;;;;;;7.97;4.40;;;;;;;2.90;90.80;101778.44;6251655;22;20026;-73
2020/12/26 10:08:29;;;;;;;5.45;4.53;;;;;;;2.94;90.55;101767.88;6278673;22;20069;-72
2020/12/26 10:10:55;;;;;;;7.00;4.30;;;;;;;2.99;90.30;101774.41;6251900;22;20090;-72
2020/12/26 10:13:21;;;;;;;8.55;4.88;;;;;;;3.03;90.98;101769.31;6278079;22;20007;-72
2020/12/26 10:15:47;;;;;;;10.40;4.72;;;;;;;3.08;90.40;101764.88;6251219;22;20023;-72
2020/12/26 10:18:12;;;;;;;9.13;4.75;;;;;;;3.10;90.56;101762.78;6251591;22;20069;-72
2020/12/26 10:20:38;;;;;;;8.45;4.80;;;;;;;3.16;91.30;101765.72;6278544;22;20421;-72
2020/12/26 10:23:03;;;;;;;8.10;4.35;;;;;;;3.21;90.72;101768.66;6251255;22;20333;-72
2020/12/26 10:25:29;;;;;;;6.82;4.13;;;;;;;3.24;90.31;101763.59;6225841;22;20324;-72
2020/12/26 10:27:54;;;;;;;5.90;4.15;;;;;;;3.27;90.41;101763.16;6251455;22;20012;-72
2020/12/26 10:30:20;;;;;;;7.38;4.80;;;;;;;3.32;90.42;101763.34;6250327;22;20412;-72
2020/12/26 10:32:46;;;;;;;9.73;4.68;;;;;;;3.37;90.31;101762.69;6276535;22;20082;-72
2020/12/26 10:35:12;;;;;;;7.78;4.80;;;;;;;3.42;90.87;101762.06;6226237;22;20011;-72
2020/12/26 10:37:38;;;;;;;6.85;4.38;;;;;;;3.46;90.42;101766.06;6226214;22;20018;-72
2020/12/26 10:40:05;;;;;;;7.90;4.88;;;;;;;3.50;90.21;101759.91;6251023;22;20030;-72
2020/12/26 10:42:30;;;;;;;6.07;4.43;;;;;;;3.53;90.74;101751.22;6277870;22;20050;-73
2020/12/26 10:44:56;;;;;;;12.25;5.10;;;;;;;3.58;91.08;101756.09;6278696;22;20085;-72
2020/12/26 10:47:22;;;;;;;10.30;5.30;;;;;;;3.61;91.05;101746.56;6251267;22;20003;-72
2020/12/26 10:49:47;;;;;;;9.85;5.28;;;;;;;3.65;90.98;101745.94;6278068;22;20007;-73
2020/12/26 10:52:13;;;;;;;7.97;5.13;;;;;;;3.69;91.77;101736.16;6278133;22;20007;-73
2020/12/26 10:54:38;;;;;;;8.98;4.93;;;;;;;3.76;92.33;101737.00;6250971;22;20328;-72
2020/12/26 10:57:04;;;;;;;10.05;5.03;;;;;;;3.81;92.42;101731.66;6251211;22;20030;-73
2020/12/26 10:59:29;;;;;;;10.25;5.18;;;;;;;3.87;93.29;101724.44;6250872;22;20003;-72
2020/12/26 11:01:55;;;;;;;8.43;5.03;;;;;;;3.94;92.23;101727.16;6252017;22;20004;-73
2020/12/26 11:04:20;;;;;;;8.68;4.57;;;;;;;4.00;92.36;101715.28;6203569;22;20008;-73
2020/12/26 11:06:49;;;;;;;9.50;5.28;;;;;;;4.10;93.12;101715.66;6280129;22;20086;-72
2020/12/26 11:09:17;;;;;;;7.53;4.40;;;;;;;4.16;92.78;101698.25;6252981;22;20094;-73
2020/12/26 11:11:51;;;;;;;8.85;4.28;;;;;;;4.23;93.34;101696.31;6253550;22;20333;-72
2020/12/26 11:14:17;;;;;;;6.22;4.38;;;;;;;4.31;93.34;101699.84;6278845;22;20003;-72
2020/12/26 11:16:52;;;;;;;9.40;4.90;;;;;;;4.38;93.43;101692.41;6202648;22;20067;-72
2020/12/26 11:19:18;;;;;;;10.75;4.35;;;;;;;4.45;93.84;101683.00;6253241;22;20107;-73
2020/12/26 11:21:44;;;;;;;7.50;4.50;;;;;;;4.53;93.78;101690.13;6203315;22;20087;-72
2020/12/26 11:24:10;;;;;;;9.13;4.40;;;;;;;4.61;93.94;101692.59;6280111;22;20011;-72
2020/12/26 11:26:36;;;;;;;8.13;4.57;;;;;;;4.68;93.27;101682.38;6252686;22;20004;-72
2020/12/26 11:29:02;;;;;;;7.90;3.95;;;;;;;4.75;93.17;101682.31;6280018;22;20012;-72
2020/12/26 11:31:27;;;;;;;7.57;4.15;;;;;;;4.82;93.27;101687.75;6227746;22;20003;-75
2020/12/26 11:33:53;;;;;;;6.85;3.97;;;;;;;4.89;93.36;101677.53;6252571;22;20004;-72